CYCG

Details ICAO CYCG (YCG)
Name CASTLEGAR
Region Canada
Timezone America/Vancouver (UTC-7.0)
Plans Departing 21
Arriving 40
Stats Elevation 1,624 ft / 495 m (AMSL)
Location 49.296222° -117.632504°
Runways 1
Magnetic Variation 14.926° E
Sunrise 2018-05-23 11:58:50 UTC / 2018-05-23 04:58:50 Local
Sunset 2018-05-24 03:38:38 UTC / 2018-05-23 20:38:38 Local
Advertisement - Login to hide

Runways

ID Width Length Bearing (true) Bearing (mag) Surface Threshold Offset Overrun Length
15 150 ft / 46 m 5,301 ft / 1,616 m 169.02° 154.09° Asphalt 0 ft / 0 m 0 ft / 0 m
33 150 ft / 46 m 5,301 ft / 1,616 m 349.02° 334.09° Asphalt 0 ft / 0 m 0 ft / 0 m

Approach Navaids

Runway Type Ident Frequency Range Bearing (true) Bearing (mag) Slope Elevation
15 Localiser XCG 110.10 MHz 18 nm / 33 km 196.00° 181.07° - 1,695 ft / 517 m (AMSL)

Map

Weather


0- 5 10 15 20 25 30 35+ Temperature / ° C

Clouds and Precipitation
Forecast for 2018-05-23 18:00 UTC. Updated 3 hours ago

Ground ~20,000 ft ~40,000 ft Winds

METAR

CYCG 232000Z 01009KT 340V060 15SM FEW065 SCT140 25/06 A2975 RMK CU1AC3 SLP070 DENSITY ALT 3400FT

TAF

TAF CYCG 231838Z 2319/2404 34008KT P6SM FEW060 FEW140 FM232100 34008KT P6SM SCT100 TEMPO 2321/2404 P6SM VCTS BKN100CB RMK NXT FCST BY 240100Z

Frequencies

Unicom 122.10 MHz CTAF
Warning: Do not use this data for real-world aviation or navigation. No guarantee of current accuracy is given.